createdAt,value
2019-01-14T00:02:24.776Z,20
2019-01-14T00:05:30.838Z,20
2019-01-14T00:08:36.811Z,19.9
2019-01-14T00:11:42.757Z,19.9
2019-01-14T00:14:48.682Z,19.9
2019-01-14T00:17:54.578Z,19.9
2019-01-14T00:21:00.715Z,19.9
2019-01-14T00:24:06.591Z,19.9
2019-01-14T00:27:12.641Z,19.9
2019-01-14T00:30:18.605Z,19.9
2019-01-14T00:33:24.621Z,19.9
2019-01-14T00:36:30.579Z,19.9
2019-01-14T00:39:36.489Z,19.8
2019-01-14T00:42:42.448Z,19.8
2019-01-14T00:45:48.303Z,19.8
2019-01-14T00:48:54.248Z,19.8
2019-01-14T00:52:00.380Z,19.8
2019-01-14T00:55:06.366Z,19.8
2019-01-14T00:58:12.305Z,19.8
2019-01-14T01:01:18.211Z,19.8
2019-01-14T01:04:24.148Z,19.8
2019-01-14T01:07:30.221Z,19.8
2019-01-14T01:10:36.080Z,19.8
2019-01-14T01:13:42.057Z,19.9
2019-01-14T01:16:47.978Z,19.9
2019-01-14T01:19:53.868Z,19.9
2019-01-14T01:22:59.800Z,20
2019-01-14T01:26:05.681Z,20
2019-01-14T01:29:11.656Z,20
2019-01-14T01:32:17.754Z,20.1
2019-01-14T01:35:23.680Z,20.1
2019-01-14T01:38:29.662Z,20.1
2019-01-14T01:41:35.577Z,20.2
2019-01-14T01:44:41.511Z,20.2
2019-01-14T01:47:47.723Z,20.2
2019-01-14T01:50:53.760Z,20.3
2019-01-14T01:53:59.619Z,20.3
2019-01-14T01:57:08.101Z,20.3
2019-01-14T02:00:15.717Z,20.4
2019-01-14T02:03:21.590Z,20.4
2019-01-14T02:06:27.499Z,20.4
2019-01-14T02:09:40.262Z,20.4
2019-01-14T02:12:46.166Z,20.5
2019-01-14T02:15:52.233Z,20.5
2019-01-14T02:18:58.151Z,20.5
2019-01-14T02:22:04.151Z,20.5
2019-01-14T02:25:10.168Z,20.6
2019-01-14T02:28:16.113Z,20.6
2019-01-14T02:31:22.098Z,20.6
2019-01-14T02:34:28.033Z,20.7
2019-01-14T02:37:34.027Z,20.7
2019-01-14T02:40:39.961Z,20.7
2019-01-14T02:43:46.044Z,20.7
2019-01-14T02:46:52.043Z,20.8
2019-01-14T02:49:57.880Z,20.8
2019-01-14T02:53:04.030Z,20.8
2019-01-14T02:56:10.089Z,20.8
2019-01-14T02:59:16.082Z,20.8
2019-01-14T03:02:22.070Z,20.9
2019-01-14T03:05:28.002Z,20.9
2019-01-14T03:08:33.917Z,20.9
2019-01-14T03:11:39.857Z,20.9
2019-01-14T03:14:45.835Z,21
2019-01-14T03:17:51.836Z,21
2019-01-14T03:20:57.766Z,21
2019-01-14T03:24:03.698Z,21
2019-01-14T03:27:09.707Z,21
2019-01-14T03:30:15.644Z,21
2019-01-14T03:33:21.786Z,21
2019-01-14T03:36:27.730Z,21.1
2019-01-14T03:39:33.607Z,21.1
2019-01-14T03:42:39.536Z,21.2
2019-01-14T03:45:45.554Z,21.2
2019-01-14T03:48:52.515Z,21.3
2019-01-14T03:51:58.492Z,21.3
2019-01-14T03:55:04.518Z,21.4
2019-01-14T03:58:10.593Z,21.4
2019-01-14T04:01:16.694Z,21.5
2019-01-14T04:04:22.734Z,21.5
2019-01-14T04:07:28.729Z,21.5
2019-01-14T04:10:34.630Z,21.6
2019-01-14T04:13:40.580Z,21.6
2019-01-14T04:16:46.491Z,21.7
2019-01-14T04:19:52.548Z,21.6
2019-01-14T04:22:58.468Z,21.5
2019-01-14T04:26:06.335Z,21.5
2019-01-14T04:29:12.327Z,21.5
2019-01-14T04:32:18.348Z,21.6
2019-01-14T04:35:24.378Z,21.6
2019-01-14T04:38:30.339Z,21.7
2019-01-14T04:41:36.283Z,21.7
2019-01-14T04:44:42.286Z,21.8
2019-01-14T04:47:48.257Z,21.8
2019-01-14T04:50:56.806Z,21.8
2019-01-14T04:54:05.247Z,21.9
2019-01-14T04:57:11.244Z,21.9
2019-01-14T05:00:17.171Z,21.9
2019-01-14T05:03:23.299Z,22
2019-01-14T05:06:29.188Z,22
2019-01-14T05:09:40.366Z,22
2019-01-14T05:12:46.308Z,22
2019-01-14T05:15:52.337Z,22.1
2019-01-14T05:18:58.330Z,22.1
2019-01-14T05:22:04.290Z,22.1
2019-01-14T05:25:10.219Z,22.1
2019-01-14T05:28:16.227Z,22.1
2019-01-14T05:31:22.215Z,22.2
2019-01-14T05:34:28.249Z,22.2
2019-01-14T05:37:37.490Z,22.2
2019-01-14T05:40:43.893Z,22.2
2019-01-14T05:43:49.848Z,22.3
2019-01-14T05:46:55.868Z,22.3
2019-01-14T05:50:01.874Z,22.3
2019-01-14T05:53:07.772Z,22.3
2019-01-14T05:56:13.791Z,22.4
2019-01-14T05:59:19.691Z,22.4
2019-01-14T06:02:25.615Z,22.4
2019-01-14T06:05:31.613Z,22.4
2019-01-14T06:08:37.596Z,22.4
2019-01-14T06:11:43.531Z,22.4
2019-01-14T06:14:49.468Z,22.4
2019-01-14T06:17:58.479Z,22.5
2019-01-14T06:21:04.453Z,22.5
2019-01-14T06:24:10.402Z,22.5
2019-01-14T06:27:16.297Z,22.5
2019-01-14T06:30:22.253Z,22.5
2019-01-14T06:33:28.169Z,22.6
2019-01-14T06:36:34.374Z,22.6
2019-01-14T06:39:40.645Z,22.6
2019-01-14T06:42:46.911Z,22.7
2019-01-14T06:45:56.108Z,22.7
2019-01-14T06:49:02.314Z,22.8
2019-01-14T06:52:08.794Z,22.8
2019-01-14T06:55:15.068Z,22.8
2019-01-14T06:58:21.071Z,22.9
2019-01-14T07:01:27.026Z,22.9
2019-01-14T07:04:34.129Z,22.9
2019-01-14T07:07:40.178Z,22.9
2019-01-14T07:10:46.291Z,22.9
2019-01-14T07:13:52.678Z,23
2019-01-14T07:16:58.617Z,23
2019-01-14T07:20:05.099Z,23
2019-01-14T07:23:11.245Z,23
2019-01-14T07:26:17.506Z,23.1
2019-01-14T07:29:23.563Z,23.1
2019-01-14T07:32:29.576Z,23.1
2019-01-14T07:35:35.524Z,23.2
2019-01-14T07:38:41.575Z,23.3
2019-01-14T07:41:47.496Z,23.3
2019-01-14T07:44:53.620Z,23.3
2019-01-14T07:48:02.686Z,23.4
2019-01-14T07:51:09.882Z,23.4
2019-01-14T07:54:15.966Z,23.4
2019-01-14T07:57:22.284Z,23.5
2019-01-14T08:00:28.323Z,23.5
2019-01-14T08:03:34.484Z,23.5
2019-01-14T08:06:40.613Z,23.5
2019-01-14T08:09:46.593Z,23.6
2019-01-14T08:12:52.666Z,23.6
2019-01-14T08:15:58.629Z,23.7
2019-01-14T08:19:04.645Z,23.7
2019-01-14T08:22:10.648Z,23.7
2019-01-14T08:25:16.898Z,23.8
2019-01-14T08:28:22.954Z,23.8
2019-01-14T08:31:30.307Z,23.9
2019-01-14T08:34:36.320Z,23.9
2019-01-14T08:37:42.693Z,24
2019-01-14T08:40:49.223Z,24
2019-01-14T08:43:58.024Z,24
2019-01-14T08:47:05.048Z,24.1
2019-01-14T08:50:13.046Z,24.1
2019-01-14T08:53:19.368Z,24.1
2019-01-14T08:56:27.885Z,24.2
2019-01-14T08:59:33.916Z,24.2
2019-01-14T09:02:39.927Z,24.2
2019-01-14T09:05:47.903Z,24.3
2019-01-14T09:08:53.931Z,24.3
2019-01-14T09:12:00.043Z,24.3
2019-01-14T09:15:05.976Z,24.4
2019-01-14T09:18:11.925Z,24.4
2019-01-14T09:21:18.279Z,24.4
2019-01-14T09:24:24.446Z,24.4
2019-01-14T09:27:30.808Z,24.4
2019-01-14T09:30:36.785Z,24.5
2019-01-14T09:33:42.690Z,24.5
2019-01-14T09:36:49.618Z,24.5
2019-01-14T09:39:56.644Z,24.4
2019-01-14T09:43:02.767Z,24.5
2019-01-14T09:46:08.798Z,24.5
2019-01-14T09:49:14.970Z,24.5
2019-01-14T09:52:20.960Z,24.5
2019-01-14T09:55:29.046Z,24.5
2019-01-14T09:58:35.186Z,24.5
2019-01-14T10:01:41.129Z,24.5
2019-01-14T10:04:47.239Z,24.5
2019-01-14T10:07:53.170Z,24.5
2019-01-14T10:11:00.187Z,24.5
2019-01-14T10:14:06.372Z,24.6
2019-01-14T10:17:12.329Z,24.6
2019-01-14T10:20:18.443Z,24.6
2019-01-14T10:23:24.283Z,24.5
2019-01-14T10:26:30.218Z,24.5
2019-01-14T10:29:36.098Z,24.5
2019-01-14T10:32:42.391Z,24.6
2019-01-14T10:35:48.730Z,24.6
2019-01-14T10:38:54.765Z,24.6
2019-01-14T10:42:04.996Z,24.6
2019-01-14T10:45:11.211Z,24.6
2019-01-14T10:48:18.171Z,24.6
2019-01-14T10:51:24.198Z,24.6
2019-01-14T10:54:30.255Z,24.6
2019-01-14T10:57:36.279Z,24.7
2019-01-14T11:00:42.429Z,24.7
2019-01-14T11:03:50.730Z,24.7
2019-01-14T11:06:56.760Z,24.7
2019-01-14T11:10:02.895Z,24.7
2019-01-14T11:13:09.183Z,24.7
2019-01-14T11:16:15.323Z,24.7
2019-01-14T11:19:21.243Z,24.7
2019-01-14T11:22:27.333Z,24.7
2019-01-14T11:25:35.326Z,24.8
2019-01-14T11:28:41.372Z,24.8
2019-01-14T11:31:47.396Z,24.8
2019-01-14T11:34:54.385Z,24.8
2019-01-14T11:38:01.164Z,24.8
2019-01-14T11:41:07.109Z,24.9
2019-01-14T11:44:14.344Z,24.9
2019-01-14T11:47:21.303Z,24.9
2019-01-14T11:50:27.793Z,24.9
2019-01-14T11:53:33.863Z,24.9
2019-01-14T11:56:39.930Z,24.9
2019-01-14T11:59:45.788Z,24.9
2019-01-14T12:02:51.967Z,25
2019-01-14T12:05:57.955Z,25
2019-01-14T12:09:04.073Z,25
2019-01-14T12:12:17.237Z,25
2019-01-14T12:15:23.549Z,25.1
2019-01-14T12:18:30.083Z,25.1
2019-01-14T12:21:36.795Z,25.1
2019-01-14T12:24:43.035Z,25.1
2019-01-14T12:27:50.168Z,25.1
2019-01-14T12:30:57.245Z,25.1
2019-01-14T12:34:03.519Z,25.1
2019-01-14T12:37:09.659Z,25.1
2019-01-14T12:40:17.776Z,25.2
2019-01-14T12:43:27.415Z,25.2
2019-01-14T12:46:34.766Z,25.2
2019-01-14T12:49:42.805Z,25.2
2019-01-14T12:52:49.078Z,25.2
2019-01-14T12:55:55.205Z,25.2
2019-01-14T12:59:01.095Z,25.2
2019-01-14T13:02:07.216Z,25.2
2019-01-14T13:05:14.312Z,25.3
2019-01-14T13:08:20.479Z,25.3
2019-01-14T13:11:26.553Z,25.3
2019-01-14T13:14:32.733Z,25.3
2019-01-14T13:17:38.701Z,25.3
2019-01-14T13:20:44.883Z,25.3
2019-01-14T13:23:51.932Z,25.3
2019-01-14T13:26:58.056Z,25.3
2019-01-14T13:30:03.941Z,25.3
2019-01-14T13:33:09.928Z,25.3
2019-01-14T13:36:16.404Z,25.3
2019-01-14T13:39:25.630Z,25.3
2019-01-14T13:42:38.651Z,25.3
2019-01-14T13:45:44.757Z,25.3
2019-01-14T13:48:55.675Z,25.3
2019-01-14T13:52:04.318Z,25.3
2019-01-14T13:55:10.362Z,25.3
2019-01-14T13:58:16.850Z,25.3
2019-01-14T14:01:24.035Z,25.3
2019-01-14T14:04:30.137Z,25.3
2019-01-14T14:07:36.215Z,25.3
2019-01-14T14:10:42.456Z,25.3
2019-01-14T14:13:48.440Z,25.4
2019-01-14T14:16:54.341Z,25.4
2019-01-14T14:20:00.386Z,25.3
2019-01-14T14:23:06.250Z,25.3
2019-01-14T14:26:12.334Z,25.4
2019-01-14T14:29:18.273Z,25.3
2019-01-14T14:32:24.346Z,25.3
2019-01-14T14:35:30.403Z,25.3
2019-01-14T14:38:36.631Z,25.3
2019-01-14T14:41:42.622Z,25.3
2019-01-14T14:44:48.804Z,25.3
2019-01-14T14:47:54.848Z,25.3
2019-01-14T14:51:00.904Z,25.4
2019-01-14T14:54:07.005Z,25.4
2019-01-14T14:57:13.049Z,25.4
2019-01-14T15:00:18.905Z,25.4
2019-01-14T15:03:24.847Z,25.4
2019-01-14T15:06:30.845Z,25.4
2019-01-14T15:09:37.095Z,25.3
2019-01-14T15:12:43.161Z,25.4
2019-01-14T15:15:49.166Z,25.3
2019-01-14T15:18:55.213Z,25.4
2019-01-14T15:22:02.266Z,25.4
2019-01-14T15:25:08.264Z,25.4
2019-01-14T15:28:14.280Z,25.3
2019-01-14T15:31:20.233Z,25.4
2019-01-14T15:34:26.183Z,25.4
2019-01-14T15:37:34.466Z,25.4
2019-01-14T15:40:40.608Z,25.3
2019-01-14T15:43:46.583Z,25.4
2019-01-14T15:46:52.576Z,25.4
2019-01-14T15:49:58.456Z,25.4
2019-01-14T15:53:04.417Z,25.4
2019-01-14T15:56:10.377Z,25.4
2019-01-14T15:59:16.282Z,25.3
2019-01-14T16:02:22.280Z,25.3
2019-01-14T16:05:28.238Z,25.3
2019-01-14T16:08:34.129Z,25.3
2019-01-14T16:11:40.177Z,25.3
2019-01-14T16:14:46.204Z,25.3
2019-01-14T16:17:52.198Z,25.3
2019-01-14T16:20:58.242Z,25.3
2019-01-14T16:24:04.227Z,25.3
2019-01-14T16:27:10.158Z,25.3
2019-01-14T16:30:16.181Z,25.3
2019-01-14T16:33:22.076Z,25.3
2019-01-14T16:36:28.096Z,25.3
2019-01-14T16:39:34.120Z,25.3
2019-01-14T16:42:40.057Z,25.3
2019-01-14T16:45:45.992Z,25.3
2019-01-14T16:48:52.197Z,25.3
2019-01-14T16:51:58.257Z,25.2
2019-01-14T16:55:04.226Z,25.3
2019-01-14T16:58:10.166Z,25.2
2019-01-14T17:01:16.132Z,25.3
2019-01-14T17:04:22.391Z,25.3
2019-01-14T17:07:28.253Z,25.2
2019-01-14T17:10:34.287Z,25.3
2019-01-14T17:13:40.171Z,25.3
2019-01-14T17:16:46.197Z,25.2
2019-01-14T17:19:52.143Z,25.2
2019-01-14T17:22:58.049Z,25.2
2019-01-14T17:26:04.022Z,25.2
2019-01-14T17:29:09.988Z,25.2
2019-01-14T17:32:16.000Z,25.2
2019-01-14T17:35:21.891Z,25.2
2019-01-14T17:38:27.933Z,25.2
2019-01-14T17:41:33.894Z,25.2
2019-01-14T17:44:39.759Z,25.2
2019-01-14T17:47:47.228Z,25.2
2019-01-14T17:50:53.236Z,25.2
2019-01-14T17:53:59.255Z,25.1
2019-01-14T17:57:05.130Z,25.1
2019-01-14T18:00:11.082Z,25.1
2019-01-14T18:03:17.004Z,25.1
2019-01-14T18:06:22.977Z,25
2019-01-14T18:09:29.008Z,25
2019-01-14T18:12:34.930Z,25
2019-01-14T18:15:40.890Z,24.9
2019-01-14T18:18:47.089Z,24.9
2019-01-14T18:21:53.319Z,24.9
2019-01-14T18:24:59.345Z,24.8
2019-01-14T18:28:05.637Z,24.8
2019-01-14T18:31:11.577Z,24.8
2019-01-14T18:34:17.610Z,24.7
2019-01-14T18:37:23.634Z,24.7
2019-01-14T18:40:33.747Z,24.7
2019-01-14T18:43:40.052Z,24.6
2019-01-14T18:46:45.978Z,24.6
2019-01-14T18:49:51.873Z,24.5
2019-01-14T18:52:57.927Z,24.5
2019-01-14T18:56:06.467Z,24.4
2019-01-14T18:59:12.423Z,24.4
2019-01-14T19:02:18.372Z,24.3
2019-01-14T19:05:24.486Z,24.3
2019-01-14T19:08:30.420Z,24.2
2019-01-14T19:11:36.435Z,24.2
2019-01-14T19:14:42.332Z,24.1
2019-01-14T19:17:48.263Z,24.1
2019-01-14T19:20:54.235Z,24
2019-01-14T19:24:00.303Z,24
2019-01-14T19:27:06.170Z,24
2019-01-14T19:30:19.627Z,23.9
2019-01-14T19:33:25.557Z,23.9
2019-01-14T19:36:31.516Z,23.8
2019-01-14T19:39:37.584Z,23.8
2019-01-14T19:42:43.530Z,23.8
2019-01-14T19:45:49.969Z,23.7
2019-01-14T19:48:56.061Z,23.7
2019-01-14T19:52:02.028Z,23.7
2019-01-14T19:55:07.877Z,23.7
2019-01-14T19:58:15.365Z,23.6
2019-01-14T20:01:21.230Z,23.6
2019-01-14T20:04:27.199Z,23.5
2019-01-14T20:07:33.044Z,23.5
2019-01-14T20:10:39.108Z,23.5
2019-01-14T20:13:45.381Z,23.5
2019-01-14T20:16:51.270Z,23.5
2019-01-14T20:19:57.319Z,23.4
2019-01-14T20:23:03.325Z,23.4
2019-01-14T20:26:09.216Z,23.4
2019-01-14T20:29:15.146Z,23.3
2019-01-14T20:32:21.053Z,23.3
2019-01-14T20:35:27.052Z,23.3
2019-01-14T20:38:32.947Z,23.3
2019-01-14T20:41:38.961Z,23.2
2019-01-14T20:44:44.870Z,23.2
2019-01-14T20:47:50.807Z,23.2
2019-01-14T20:50:56.695Z,23.1
2019-01-14T20:54:02.623Z,23.1
2019-01-14T20:57:08.620Z,23.1
2019-01-14T21:00:14.565Z,23.1
2019-01-14T21:03:20.635Z,23
2019-01-14T21:06:26.484Z,23
2019-01-14T21:09:32.425Z,23
2019-01-14T21:12:38.302Z,23
2019-01-14T21:15:44.272Z,22.9
2019-01-14T21:18:50.299Z,22.9
2019-01-14T21:21:56.176Z,22.9
2019-01-14T21:25:02.140Z,22.9
2019-01-14T21:28:08.097Z,22.9
2019-01-14T21:31:14.059Z,22.8
2019-01-14T21:34:20.041Z,22.8
2019-01-14T21:37:26.068Z,22.8
2019-01-14T21:40:32.056Z,22.8
2019-01-14T21:43:38.316Z,22.7
2019-01-14T21:46:44.299Z,22.7
2019-01-14T21:49:50.295Z,22.7
2019-01-14T21:52:56.196Z,22.7
2019-01-14T21:56:02.140Z,22.6
2019-01-14T21:59:08.188Z,22.6
2019-01-14T22:02:14.236Z,22.6
2019-01-14T22:05:20.178Z,22.6
2019-01-14T22:08:26.402Z,22.6
2019-01-14T22:11:38.468Z,22.5
2019-01-14T22:14:44.738Z,22.5
2019-01-14T22:17:50.619Z,22.5
2019-01-14T22:20:56.586Z,22.5
2019-01-14T22:24:02.558Z,22.4
2019-01-14T22:27:08.500Z,22.4
2019-01-14T22:30:14.489Z,22.4
2019-01-14T22:33:20.621Z,22.3
2019-01-14T22:36:26.643Z,22.3
2019-01-14T22:39:32.548Z,22.3
2019-01-14T22:42:38.507Z,22.2
2019-01-14T22:45:44.463Z,22.3
2019-01-14T22:48:50.395Z,22.2
2019-01-14T22:51:56.281Z,22.2
2019-01-14T22:55:02.227Z,22.2
2019-01-14T22:58:08.297Z,22.1
2019-01-14T23:01:14.173Z,22.1
2019-01-14T23:04:20.138Z,22.1
2019-01-14T23:07:26.105Z,22.1
2019-01-14T23:10:32.042Z,22.1
2019-01-14T23:13:37.981Z,22.1
2019-01-14T23:16:43.984Z,22
2019-01-14T23:19:50.048Z,22
2019-01-14T23:22:55.965Z,22
2019-01-14T23:26:01.926Z,22
2019-01-14T23:29:07.879Z,22
2019-01-14T23:32:13.873Z,21.9
2019-01-14T23:35:19.833Z,21.9
2019-01-14T23:38:25.839Z,21.9
2019-01-14T23:41:31.766Z,21.9
2019-01-14T23:44:37.684Z,21.9
2019-01-14T23:47:46.732Z,21.8
2019-01-14T23:50:52.794Z,21.8
2019-01-14T23:53:58.738Z,21.8
2019-01-14T23:57:04.734Z,21.8
